sensor_id;sensor_type;location;lat;lon;timestamp;P1;durP1;ratioP1;P2;durP2;ratioP2
5821;SDS011;2937;48.562;8.022;2022-07-06T00:03:05;10.20;;;6.27;;
5821;SDS011;2937;48.562;8.022;2022-07-06T00:07:59;8.50;;;6.70;;
5821;SDS011;2937;48.562;8.022;2022-07-06T00:12:52;10.80;;;6.67;;
5821;SDS011;2937;48.562;8.022;2022-07-06T00:17:44;8.40;;;5.90;;
5821;SDS011;2937;48.562;8.022;2022-07-06T00:22:37;9.10;;;6.17;;
5821;SDS011;2937;48.562;8.022;2022-07-06T00:27:31;7.80;;;6.30;;
5821;SDS011;2937;48.562;8.022;2022-07-06T00:32:24;11.10;;;6.40;;
5821;SDS011;2937;48.562;8.022;2022-07-06T00:37:16;11.00;;;5.97;;
5821;SDS011;2937;48.562;8.022;2022-07-06T00:42:09;9.57;;;6.70;;
5821;SDS011;2937;48.562;8.022;2022-07-06T00:47:03;9.77;;;6.23;;
5821;SDS011;2937;48.562;8.022;2022-07-06T00:51:57;7.40;;;5.83;;
5821;SDS011;2937;48.562;8.022;2022-07-06T00:56:50;9.00;;;6.03;;
5821;SDS011;2937;48.562;8.022;2022-07-06T01:01:43;6.43;;;5.73;;
5821;SDS011;2937;48.562;8.022;2022-07-06T01:06:37;8.07;;;5.90;;
5821;SDS011;2937;48.562;8.022;2022-07-06T01:11:30;7.77;;;6.67;;
5821;SDS011;2937;48.562;8.022;2022-07-06T01:16:23;9.40;;;6.60;;
5821;SDS011;2937;48.562;8.022;2022-07-06T01:21:17;7.97;;;6.43;;
5821;SDS011;2937;48.562;8.022;2022-07-06T01:26:10;7.50;;;6.70;;
5821;SDS011;2937;48.562;8.022;2022-07-06T01:31:04;10.30;;;6.50;;
5821;SDS011;2937;48.562;8.022;2022-07-06T01:35:56;7.17;;;6.30;;
5821;SDS011;2937;48.562;8.022;2022-07-06T01:40:50;10.07;;;7.50;;
5821;SDS011;2937;48.562;8.022;2022-07-06T01:45:43;7.97;;;7.17;;
5821;SDS011;2937;48.562;8.022;2022-07-06T01:50:37;10.20;;;7.10;;
5821;SDS011;2937;48.562;8.022;2022-07-06T01:55:30;7.90;;;6.73;;
5821;SDS011;2937;48.562;8.022;2022-07-06T02:00:24;7.27;;;6.20;;
5821;SDS011;2937;48.562;8.022;2022-07-06T02:05:17;7.37;;;6.00;;
5821;SDS011;2937;48.562;8.022;2022-07-06T02:10:09;7.93;;;6.13;;
5821;SDS011;2937;48.562;8.022;2022-07-06T02:15:02;8.00;;;5.80;;
5821;SDS011;2937;48.562;8.022;2022-07-06T02:19:56;6.87;;;5.97;;
5821;SDS011;2937;48.562;8.022;2022-07-06T02:24:50;8.70;;;6.93;;
5821;SDS011;2937;48.562;8.022;2022-07-06T02:29:43;6.97;;;5.90;;
5821;SDS011;2937;48.562;8.022;2022-07-06T02:34:36;8.00;;;6.00;;
5821;SDS011;2937;48.562;8.022;2022-07-06T02:39:30;8.30;;;5.90;;
5821;SDS011;2937;48.562;8.022;2022-07-06T02:44:23;8.13;;;5.70;;
5821;SDS011;2937;48.562;8.022;2022-07-06T02:49:16;7.50;;;6.10;;
5821;SDS011;2937;48.562;8.022;2022-07-06T02:54:10;6.57;;;5.63;;
5821;SDS011;2937;48.562;8.022;2022-07-06T02:59:04;7.77;;;6.37;;
5821;SDS011;2937;48.562;8.022;2022-07-06T03:04:04;9.00;;;6.17;;
5821;SDS011;2937;48.562;8.022;2022-07-06T03:08:57;8.20;;;6.40;;
5821;SDS011;2937;48.562;8.022;2022-07-06T03:13:50;8.63;;;6.03;;
5821;SDS011;2937;48.562;8.022;2022-07-06T03:18:44;11.00;;;7.40;;
5821;SDS011;2937;48.562;8.022;2022-07-06T03:23:37;7.93;;;7.07;;
5821;SDS011;2937;48.562;8.022;2022-07-06T03:28:30;12.20;;;7.70;;
5821;SDS011;2937;48.562;8.022;2022-07-06T03:33:23;11.50;;;7.17;;
5821;SDS011;2937;48.562;8.022;2022-07-06T03:38:18;9.40;;;7.47;;
5821;SDS011;2937;48.562;8.022;2022-07-06T03:43:11;7.60;;;6.33;;
5821;SDS011;2937;48.562;8.022;2022-07-06T03:48:06;10.77;;;7.80;;
5821;SDS011;2937;48.562;8.022;2022-07-06T03:53:01;8.50;;;7.10;;
5821;SDS011;2937;48.562;8.022;2022-07-06T03:57:55;10.03;;;6.57;;
5821;SDS011;2937;48.562;8.022;2022-07-06T04:02:54;8.90;;;6.90;;
5821;SDS011;2937;48.562;8.022;2022-07-06T04:07:52;8.50;;;7.13;;
5821;SDS011;2937;48.562;8.022;2022-07-06T04:12:49;8.43;;;7.07;;
5821;SDS011;2937;48.562;8.022;2022-07-06T04:17:44;8.03;;;6.63;;
5821;SDS011;2937;48.562;8.022;2022-07-06T04:22:50;8.37;;;6.37;;
5821;SDS011;2937;48.562;8.022;2022-07-06T04:27:45;8.20;;;6.77;;
5821;SDS011;2937;48.562;8.022;2022-07-06T04:32:38;7.60;;;6.50;;
5821;SDS011;2937;48.562;8.022;2022-07-06T04:37:32;9.30;;;6.73;;
5821;SDS011;2937;48.562;8.022;2022-07-06T04:42:26;8.77;;;6.20;;
5821;SDS011;2937;48.562;8.022;2022-07-06T04:47:19;9.47;;;6.73;;
5821;SDS011;2937;48.562;8.022;2022-07-06T04:52:12;16.93;;;7.00;;
5821;SDS011;2937;48.562;8.022;2022-07-06T04:57:06;11.03;;;7.23;;
5821;SDS011;2937;48.562;8.022;2022-07-06T05:02:04;12.63;;;7.47;;
5821;SDS011;2937;48.562;8.022;2022-07-06T05:06:57;12.13;;;7.97;;
5821;SDS011;2937;48.562;8.022;2022-07-06T05:11:51;11.63;;;7.60;;
5821;SDS011;2937;48.562;8.022;2022-07-06T05:16:45;10.10;;;7.90;;
5821;SDS011;2937;48.562;8.022;2022-07-06T05:21:39;12.70;;;10.13;;
5821;SDS011;2937;48.562;8.022;2022-07-06T05:26:33;20.03;;;12.77;;
5821;SDS011;2937;48.562;8.022;2022-07-06T05:31:26;13.70;;;10.93;;
5821;SDS011;2937;48.562;8.022;2022-07-06T05:36:23;11.87;;;8.80;;
5821;SDS011;2937;48.562;8.022;2022-07-06T05:41:16;9.00;;;8.10;;
5821;SDS011;2937;48.562;8.022;2022-07-06T05:46:08;13.33;;;8.67;;
5821;SDS011;2937;48.562;8.022;2022-07-06T05:51:01;14.33;;;8.27;;
5821;SDS011;2937;48.562;8.022;2022-07-06T05:55:56;10.30;;;7.20;;
5821;SDS011;2937;48.562;8.022;2022-07-06T06:00:50;9.97;;;7.40;;
5821;SDS011;2937;48.562;8.022;2022-07-06T06:05:44;8.60;;;6.50;;
5821;SDS011;2937;48.562;8.022;2022-07-06T06:10:39;11.13;;;4.97;;
5821;SDS011;2937;48.562;8.022;2022-07-06T06:15:37;5.70;;;4.23;;
5821;SDS011;2937;48.562;8.022;2022-07-06T06:20:30;6.13;;;4.30;;
5821;SDS011;2937;48.562;8.022;2022-07-06T06:25:27;6.77;;;5.40;;
5821;SDS011;2937;48.562;8.022;2022-07-06T06:30:20;5.63;;;4.23;;
5821;SDS011;2937;48.562;8.022;2022-07-06T06:35:14;10.40;;;4.87;;
5821;SDS011;2937;48.562;8.022;2022-07-06T06:40:07;9.70;;;4.87;;
5821;SDS011;2937;48.562;8.022;2022-07-06T06:45:00;7.83;;;5.00;;
5821;SDS011;2937;48.562;8.022;2022-07-06T06:49:52;8.30;;;6.00;;
5821;SDS011;2937;48.562;8.022;2022-07-06T06:54:46;7.67;;;5.37;;
5821;SDS011;2937;48.562;8.022;2022-07-06T06:59:39;8.80;;;5.80;;
5821;SDS011;2937;48.562;8.022;2022-07-06T07:04:32;7.23;;;4.20;;
5821;SDS011;2937;48.562;8.022;2022-07-06T07:09:24;9.40;;;5.50;;
5821;SDS011;2937;48.562;8.022;2022-07-06T07:14:18;7.90;;;5.30;;
5821;SDS011;2937;48.562;8.022;2022-07-06T07:19:11;6.37;;;4.70;;
5821;SDS011;2937;48.562;8.022;2022-07-06T07:24:04;7.23;;;5.93;;
5821;SDS011;2937;48.562;8.022;2022-07-06T07:29:00;6.23;;;5.07;;
5821;SDS011;2937;48.562;8.022;2022-07-06T07:33:54;6.60;;;4.47;;
5821;SDS011;2937;48.562;8.022;2022-07-06T07:38:49;6.50;;;4.30;;
5821;SDS011;2937;48.562;8.022;2022-07-06T07:43:42;7.00;;;4.90;;
5821;SDS011;2937;48.562;8.022;2022-07-06T07:48:34;7.83;;;5.13;;
5821;SDS011;2937;48.562;8.022;2022-07-06T07:53:29;8.13;;;4.70;;
5821;SDS011;2937;48.562;8.022;2022-07-06T07:58:22;6.73;;;4.60;;
5821;SDS011;2937;48.562;8.022;2022-07-06T08:03:16;6.90;;;4.20;;
5821;SDS011;2937;48.562;8.022;2022-07-06T08:08:09;7.47;;;5.20;;
5821;SDS011;2937;48.562;8.022;2022-07-06T08:13:03;6.77;;;4.17;;
5821;SDS011;2937;48.562;8.022;2022-07-06T08:17:55;7.50;;;4.57;;
5821;SDS011;2937;48.562;8.022;2022-07-06T08:22:48;7.63;;;4.63;;
5821;SDS011;2937;48.562;8.022;2022-07-06T08:27:41;6.23;;;4.70;;
5821;SDS011;2937;48.562;8.022;2022-07-06T08:32:37;7.33;;;4.03;;
5821;SDS011;2937;48.562;8.022;2022-07-06T08:37:50;5.93;;;3.70;;
5821;SDS011;2937;48.562;8.022;2022-07-06T08:42:43;11.27;;;4.90;;
5821;SDS011;2937;48.562;8.022;2022-07-06T08:47:37;5.70;;;4.57;;
5821;SDS011;2937;48.562;8.022;2022-07-06T08:52:30;8.70;;;4.83;;
5821;SDS011;2937;48.562;8.022;2022-07-06T08:57:23;9.90;;;5.07;;
5821;SDS011;2937;48.562;8.022;2022-07-06T09:02:16;5.60;;;4.37;;
5821;SDS011;2937;48.562;8.022;2022-07-06T09:07:11;7.10;;;5.20;;
5821;SDS011;2937;48.562;8.022;2022-07-06T09:12:26;6.57;;;4.90;;
5821;SDS011;2937;48.562;8.022;2022-07-06T09:17:18;10.63;;;4.90;;
5821;SDS011;2937;48.562;8.022;2022-07-06T09:22:12;8.03;;;4.70;;
5821;SDS011;2937;48.562;8.022;2022-07-06T09:27:16;6.50;;;4.70;;
5821;SDS011;2937;48.562;8.022;2022-07-06T09:32:09;7.70;;;5.27;;
5821;SDS011;2937;48.562;8.022;2022-07-06T09:37:02;8.83;;;5.47;;
5821;SDS011;2937;48.562;8.022;2022-07-06T09:41:56;6.30;;;5.67;;
5821;SDS011;2937;48.562;8.022;2022-07-06T09:46:49;8.20;;;5.60;;
5821;SDS011;2937;48.562;8.022;2022-07-06T09:51:42;8.20;;;5.33;;
5821;SDS011;2937;48.562;8.022;2022-07-06T09:56:36;8.70;;;5.40;;
5821;SDS011;2937;48.562;8.022;2022-07-06T10:01:31;9.10;;;5.80;;
5821;SDS011;2937;48.562;8.022;2022-07-06T10:06:24;10.20;;;5.77;;
5821;SDS011;2937;48.562;8.022;2022-07-06T10:11:17;8.30;;;5.63;;
5821;SDS011;2937;48.562;8.022;2022-07-06T10:16:10;7.73;;;4.97;;
5821;SDS011;2937;48.562;8.022;2022-07-06T10:21:04;6.17;;;5.43;;
5821;SDS011;2937;48.562;8.022;2022-07-06T10:25:56;9.93;;;5.40;;
5821;SDS011;2937;48.562;8.022;2022-07-06T10:30:49;8.37;;;5.63;;
5821;SDS011;2937;48.562;8.022;2022-07-06T10:35:42;6.77;;;4.87;;
5821;SDS011;2937;48.562;8.022;2022-07-06T10:40:38;8.97;;;5.87;;
5821;SDS011;2937;48.562;8.022;2022-07-06T10:45:51;7.80;;;5.33;;
5821;SDS011;2937;48.562;8.022;2022-07-06T10:50:47;7.80;;;5.40;;
5821;SDS011;2937;48.562;8.022;2022-07-06T10:55:43;7.80;;;4.77;;
5821;SDS011;2937;48.562;8.022;2022-07-06T11:00:49;7.03;;;4.87;;
5821;SDS011;2937;48.562;8.022;2022-07-06T11:05:43;6.30;;;5.00;;
5821;SDS011;2937;48.562;8.022;2022-07-06T11:10:56;8.40;;;4.60;;
5821;SDS011;2937;48.562;8.022;2022-07-06T11:16:02;7.80;;;4.73;;
5821;SDS011;2937;48.562;8.022;2022-07-06T11:26:07;8.27;;;4.70;;
5821;SDS011;2937;48.562;8.022;2022-07-06T11:31:00;7.20;;;4.30;;
5821;SDS011;2937;48.562;8.022;2022-07-06T11:35:54;7.73;;;4.63;;
5821;SDS011;2937;48.562;8.022;2022-07-06T11:41:02;9.40;;;4.93;;
5821;SDS011;2937;48.562;8.022;2022-07-06T11:45:56;6.93;;;5.10;;
5821;SDS011;2937;48.562;8.022;2022-07-06T11:50:56;5.97;;;4.40;;
5821;SDS011;2937;48.562;8.022;2022-07-06T11:55:49;6.30;;;4.17;;
5821;SDS011;2937;48.562;8.022;2022-07-06T12:00:42;5.30;;;3.77;;
5821;SDS011;2937;48.562;8.022;2022-07-06T12:05:36;9.80;;;4.27;;
5821;SDS011;2937;48.562;8.022;2022-07-06T12:10:31;5.70;;;4.50;;
5821;SDS011;2937;48.562;8.022;2022-07-06T12:15:26;6.70;;;4.23;;
5821;SDS011;2937;48.562;8.022;2022-07-06T12:20:19;8.23;;;4.33;;
5821;SDS011;2937;48.562;8.022;2022-07-06T12:25:12;5.23;;;3.93;;
5821;SDS011;2937;48.562;8.022;2022-07-06T12:30:21;5.20;;;4.00;;
5821;SDS011;2937;48.562;8.022;2022-07-06T12:35:13;7.90;;;3.93;;
5821;SDS011;2937;48.562;8.022;2022-07-06T12:40:13;4.63;;;4.00;;
5821;SDS011;2937;48.562;8.022;2022-07-06T12:45:06;4.27;;;3.50;;
5821;SDS011;2937;48.562;8.022;2022-07-06T12:50:03;5.30;;;3.60;;
5821;SDS011;2937;48.562;8.022;2022-07-06T12:54:59;5.50;;;3.50;;
5821;SDS011;2937;48.562;8.022;2022-07-06T13:00:00;4.93;;;3.80;;
5821;SDS011;2937;48.562;8.022;2022-07-06T13:04:56;8.30;;;3.77;;
5821;SDS011;2937;48.562;8.022;2022-07-06T13:09:49;6.40;;;3.80;;
5821;SDS011;2937;48.562;8.022;2022-07-06T13:14:42;7.80;;;3.27;;
5821;SDS011;2937;48.562;8.022;2022-07-06T13:19:36;6.90;;;3.10;;
5821;SDS011;2937;48.562;8.022;2022-07-06T13:24:28;4.43;;;3.10;;
5821;SDS011;2937;48.562;8.022;2022-07-06T13:29:29;5.30;;;3.37;;
5821;SDS011;2937;48.562;8.022;2022-07-06T13:34:21;3.53;;;3.00;;
5821;SDS011;2937;48.562;8.022;2022-07-06T13:39:16;3.60;;;3.17;;
5821;SDS011;2937;48.562;8.022;2022-07-06T13:44:09;3.87;;;3.33;;
5821;SDS011;2937;48.562;8.022;2022-07-06T13:49:05;3.97;;;3.43;;
5821;SDS011;2937;48.562;8.022;2022-07-06T13:53:58;3.50;;;2.90;;
5821;SDS011;2937;48.562;8.022;2022-07-06T13:58:52;3.20;;;2.60;;
5821;SDS011;2937;48.562;8.022;2022-07-06T14:03:45;4.40;;;2.80;;
5821;SDS011;2937;48.562;8.022;2022-07-06T14:08:38;5.00;;;3.00;;
5821;SDS011;2937;48.562;8.022;2022-07-06T14:13:31;3.90;;;2.23;;
5821;SDS011;2937;48.562;8.022;2022-07-06T14:18:25;3.00;;;2.00;;
5821;SDS011;2937;48.562;8.022;2022-07-06T14:23:17;3.87;;;2.37;;
5821;SDS011;2937;48.562;8.022;2022-07-06T14:28:10;4.70;;;2.27;;
5821;SDS011;2937;48.562;8.022;2022-07-06T14:33:04;3.60;;;2.10;;
5821;SDS011;2937;48.562;8.022;2022-07-06T14:38:00;2.70;;;1.83;;
5821;SDS011;2937;48.562;8.022;2022-07-06T14:42:53;2.93;;;1.80;;
5821;SDS011;2937;48.562;8.022;2022-07-06T14:47:46;3.87;;;1.90;;
5821;SDS011;2937;48.562;8.022;2022-07-06T14:52:39;3.90;;;2.10;;
5821;SDS011;2937;48.562;8.022;2022-07-06T14:57:33;3.00;;;2.03;;
5821;SDS011;2937;48.562;8.022;2022-07-06T15:02:25;3.60;;;2.20;;
5821;SDS011;2937;48.562;8.022;2022-07-06T15:07:18;6.43;;;1.93;;
5821;SDS011;2937;48.562;8.022;2022-07-06T15:12:10;3.30;;;1.97;;
5821;SDS011;2937;48.562;8.022;2022-07-06T15:17:04;7.07;;;2.50;;
5821;SDS011;2937;48.562;8.022;2022-07-06T15:21:57;6.07;;;2.13;;
5821;SDS011;2937;48.562;8.022;2022-07-06T15:26:50;3.20;;;2.10;;
5821;SDS011;2937;48.562;8.022;2022-07-06T15:31:43;4.27;;;2.13;;
5821;SDS011;2937;48.562;8.022;2022-07-06T15:36:38;6.27;;;2.00;;
5821;SDS011;2937;48.562;8.022;2022-07-06T15:41:30;2.57;;;2.10;;
5821;SDS011;2937;48.562;8.022;2022-07-06T15:46:23;4.47;;;2.00;;
5821;SDS011;2937;48.562;8.022;2022-07-06T15:51:16;4.53;;;2.20;;
5821;SDS011;2937;48.562;8.022;2022-07-06T15:56:10;3.00;;;2.10;;
5821;SDS011;2937;48.562;8.022;2022-07-06T16:01:03;4.00;;;2.00;;
5821;SDS011;2937;48.562;8.022;2022-07-06T16:05:56;3.50;;;2.00;;
5821;SDS011;2937;48.562;8.022;2022-07-06T16:11:04;3.30;;;2.20;;
5821;SDS011;2937;48.562;8.022;2022-07-06T16:15:58;2.50;;;1.90;;
5821;SDS011;2937;48.562;8.022;2022-07-06T16:20:51;5.87;;;2.40;;
5821;SDS011;2937;48.562;8.022;2022-07-06T16:25:43;4.33;;;2.33;;
5821;SDS011;2937;48.562;8.022;2022-07-06T16:30:36;5.23;;;2.20;;
5821;SDS011;2937;48.562;8.022;2022-07-06T16:35:30;7.70;;;2.40;;
5821;SDS011;2937;48.562;8.022;2022-07-06T16:40:22;7.10;;;2.20;;
5821;SDS011;2937;48.562;8.022;2022-07-06T16:45:15;2.60;;;1.87;;
5821;SDS011;2937;48.562;8.022;2022-07-06T16:50:08;2.97;;;2.20;;
5821;SDS011;2937;48.562;8.022;2022-07-06T16:55:02;5.23;;;2.20;;
5821;SDS011;2937;48.562;8.022;2022-07-06T16:59:55;3.40;;;2.33;;
5821;SDS011;2937;48.562;8.022;2022-07-06T17:04:47;5.60;;;2.30;;
5821;SDS011;2937;48.562;8.022;2022-07-06T17:09:40;3.70;;;2.40;;
5821;SDS011;2937;48.562;8.022;2022-07-06T17:14:34;4.80;;;2.53;;
5821;SDS011;2937;48.562;8.022;2022-07-06T17:19:27;4.17;;;2.40;;
5821;SDS011;2937;48.562;8.022;2022-07-06T17:24:20;3.50;;;2.60;;
5821;SDS011;2937;48.562;8.022;2022-07-06T17:29:12;3.17;;;2.50;;
5821;SDS011;2937;48.562;8.022;2022-07-06T17:34:06;5.13;;;2.40;;
5821;SDS011;2937;48.562;8.022;2022-07-06T17:38:59;3.23;;;2.20;;
5821;SDS011;2937;48.562;8.022;2022-07-06T17:43:51;3.90;;;2.40;;
5821;SDS011;2937;48.562;8.022;2022-07-06T17:48:44;5.47;;;2.40;;
5821;SDS011;2937;48.562;8.022;2022-07-06T17:53:38;2.93;;;2.10;;
5821;SDS011;2937;48.562;8.022;2022-07-06T17:58:30;5.40;;;2.70;;
5821;SDS011;2937;48.562;8.022;2022-07-06T18:03:23;5.83;;;2.60;;
5821;SDS011;2937;48.562;8.022;2022-07-06T18:08:16;6.53;;;2.37;;
5821;SDS011;2937;48.562;8.022;2022-07-06T18:13:10;5.33;;;2.60;;
5821;SDS011;2937;48.562;8.022;2022-07-06T18:18:02;5.53;;;2.67;;
5821;SDS011;2937;48.562;8.022;2022-07-06T18:22:55;4.33;;;2.40;;
5821;SDS011;2937;48.562;8.022;2022-07-06T18:27:48;4.57;;;2.50;;
5821;SDS011;2937;48.562;8.022;2022-07-06T18:32:42;3.77;;;2.73;;
5821;SDS011;2937;48.562;8.022;2022-07-06T18:37:34;4.93;;;3.13;;
5821;SDS011;2937;48.562;8.022;2022-07-06T18:42:27;4.23;;;2.50;;
5821;SDS011;2937;48.562;8.022;2022-07-06T18:47:20;4.20;;;2.73;;
5821;SDS011;2937;48.562;8.022;2022-07-06T18:52:16;3.43;;;2.47;;
5821;SDS011;2937;48.562;8.022;2022-07-06T18:57:09;7.40;;;2.50;;
5821;SDS011;2937;48.562;8.022;2022-07-06T19:02:02;12.17;;;4.17;;
5821;SDS011;2937;48.562;8.022;2022-07-06T19:06:55;5.23;;;2.43;;
5821;SDS011;2937;48.562;8.022;2022-07-06T19:11:48;11.67;;;2.83;;
5821;SDS011;2937;48.562;8.022;2022-07-06T19:16:41;8.50;;;2.60;;
5821;SDS011;2937;48.562;8.022;2022-07-06T19:21:34;2.80;;;2.30;;
5821;SDS011;2937;48.562;8.022;2022-07-06T19:26:26;6.50;;;2.57;;
5821;SDS011;2937;48.562;8.022;2022-07-06T19:31:20;8.10;;;2.93;;
5821;SDS011;2937;48.562;8.022;2022-07-06T19:36:13;4.40;;;2.40;;
5821;SDS011;2937;48.562;8.022;2022-07-06T19:41:05;5.17;;;2.50;;
5821;SDS011;2937;48.562;8.022;2022-07-06T19:45:58;3.43;;;2.50;;
5821;SDS011;2937;48.562;8.022;2022-07-06T19:50:52;4.03;;;2.80;;
5821;SDS011;2937;48.562;8.022;2022-07-06T19:55:45;4.43;;;2.67;;
5821;SDS011;2937;48.562;8.022;2022-07-06T20:00:37;4.73;;;2.97;;
5821;SDS011;2937;48.562;8.022;2022-07-06T20:05:30;4.67;;;3.00;;
5821;SDS011;2937;48.562;8.022;2022-07-06T20:10:28;7.57;;;3.27;;
5821;SDS011;2937;48.562;8.022;2022-07-06T20:15:20;3.67;;;2.80;;
5821;SDS011;2937;48.562;8.022;2022-07-06T20:20:13;6.47;;;3.50;;
5821;SDS011;2937;48.562;8.022;2022-07-06T20:25:06;5.70;;;3.00;;
5821;SDS011;2937;48.562;8.022;2022-07-06T20:30:00;4.80;;;3.30;;
5821;SDS011;2937;48.562;8.022;2022-07-06T20:34:52;5.30;;;3.03;;
5821;SDS011;2937;48.562;8.022;2022-07-06T20:39:45;5.77;;;3.77;;
5821;SDS011;2937;48.562;8.022;2022-07-06T20:44:38;6.30;;;3.30;;
5821;SDS011;2937;48.562;8.022;2022-07-06T20:49:31;7.70;;;3.53;;
5821;SDS011;2937;48.562;8.022;2022-07-06T20:54:24;5.00;;;3.50;;
5821;SDS011;2937;48.562;8.022;2022-07-06T20:59:17;6.43;;;3.70;;
5821;SDS011;2937;48.562;8.022;2022-07-06T21:04:09;4.70;;;3.93;;
5821;SDS011;2937;48.562;8.022;2022-07-06T21:09:03;6.57;;;4.00;;
5821;SDS011;2937;48.562;8.022;2022-07-06T21:13:56;7.80;;;4.50;;
5821;SDS011;2937;48.562;8.022;2022-07-06T21:18:48;7.13;;;4.40;;
5821;SDS011;2937;48.562;8.022;2022-07-06T21:23:41;6.40;;;4.10;;
5821;SDS011;2937;48.562;8.022;2022-07-06T21:28:35;7.70;;;3.90;;
5821;SDS011;2937;48.562;8.022;2022-07-06T21:33:28;6.93;;;4.20;;
5821;SDS011;2937;48.562;8.022;2022-07-06T21:38:22;6.00;;;3.87;;
5821;SDS011;2937;48.562;8.022;2022-07-06T21:43:14;6.43;;;4.30;;
5821;SDS011;2937;48.562;8.022;2022-07-06T21:48:08;7.00;;;4.70;;
5821;SDS011;2937;48.562;8.022;2022-07-06T21:53:01;7.07;;;4.50;;
5821;SDS011;2937;48.562;8.022;2022-07-06T21:58:02;9.43;;;3.90;;
5821;SDS011;2937;48.562;8.022;2022-07-06T22:02:55;6.63;;;4.30;;
5821;SDS011;2937;48.562;8.022;2022-07-06T22:07:48;8.57;;;3.77;;
5821;SDS011;2937;48.562;8.022;2022-07-06T22:12:41;5.80;;;3.80;;
5821;SDS011;2937;48.562;8.022;2022-07-06T22:17:34;5.73;;;4.33;;
5821;SDS011;2937;48.562;8.022;2022-07-06T22:22:26;6.03;;;4.67;;
5821;SDS011;2937;48.562;8.022;2022-07-06T22:27:20;7.77;;;4.60;;
5821;SDS011;2937;48.562;8.022;2022-07-06T22:32:13;5.83;;;4.90;;
5821;SDS011;2937;48.562;8.022;2022-07-06T22:37:05;6.97;;;4.50;;
5821;SDS011;2937;48.562;8.022;2022-07-06T22:42:04;5.53;;;4.50;;
5821;SDS011;2937;48.562;8.022;2022-07-06T22:46:58;7.70;;;4.80;;
5821;SDS011;2937;48.562;8.022;2022-07-06T22:51:51;6.43;;;4.93;;
5821;SDS011;2937;48.562;8.022;2022-07-06T22:56:43;8.60;;;5.10;;
5821;SDS011;2937;48.562;8.022;2022-07-06T23:01:36;8.20;;;5.40;;
5821;SDS011;2937;48.562;8.022;2022-07-06T23:06:30;7.23;;;4.47;;
5821;SDS011;2937;48.562;8.022;2022-07-06T23:11:23;4.90;;;3.90;;
5821;SDS011;2937;48.562;8.022;2022-07-06T23:16:16;7.43;;;4.07;;
5821;SDS011;2937;48.562;8.022;2022-07-06T23:21:09;7.60;;;4.53;;
5821;SDS011;2937;48.562;8.022;2022-07-06T23:26:03;5.50;;;4.27;;
5821;SDS011;2937;48.562;8.022;2022-07-06T23:30:56;6.90;;;4.50;;
5821;SDS011;2937;48.562;8.022;2022-07-06T23:35:48;6.57;;;4.33;;
5821;SDS011;2937;48.562;8.022;2022-07-06T23:40:41;7.57;;;5.20;;
5821;SDS011;2937;48.562;8.022;2022-07-06T23:45:35;7.30;;;5.23;;
5821;SDS011;2937;48.562;8.022;2022-07-06T23:50:28;8.60;;;5.43;;
5821;SDS011;2937;48.562;8.022;2022-07-06T23:55:20;5.67;;;4.83;;
